createdAt,value
2023-05-06T00:01:29.264Z,13.47
2023-05-06T00:03:56.550Z,13.41
2023-05-06T00:06:23.707Z,13.40
2023-05-06T00:08:50.833Z,13.43
2023-05-06T00:11:17.906Z,13.44
2023-05-06T00:13:45.039Z,13.33
2023-05-06T00:16:12.174Z,13.42
2023-05-06T00:18:39.336Z,13.45
2023-05-06T00:21:06.553Z,13.55
2023-05-06T00:23:33.637Z,13.51
2023-05-06T00:26:00.726Z,13.41
2023-05-06T00:28:27.795Z,13.41
2023-05-06T00:30:55.104Z,13.32
2023-05-06T00:33:22.203Z,13.47
2023-05-06T00:35:49.583Z,13.41
2023-05-06T00:38:16.959Z,13.41
2023-05-06T00:40:44.173Z,13.48
2023-05-06T00:43:11.548Z,13.52
2023-05-06T00:45:38.729Z,13.52
2023-05-06T00:48:06.682Z,13.49
2023-05-06T00:50:34.489Z,13.55
2023-05-06T00:53:03.173Z,13.58
2023-05-06T00:55:30.664Z,13.54
2023-05-06T00:57:57.837Z,13.56
2023-05-06T01:00:25.137Z,13.56
2023-05-06T01:02:52.462Z,13.46
2023-05-06T01:05:22.222Z,13.39
2023-05-06T01:08:00.476Z,13.41
2023-05-06T01:10:42.323Z,13.33
2023-05-06T01:13:15.644Z,13.16
2023-05-06T01:15:46.923Z,13.10
2023-05-06T01:18:17.081Z,13.07
2023-05-06T01:20:47.674Z,13.06
2023-05-06T01:23:14.835Z,13.06
2023-05-06T01:25:42.043Z,13.12
2023-05-06T01:28:11.390Z,13.07
2023-05-06T01:30:40.702Z,13.07
2023-05-06T01:33:13.925Z,13.13
2023-05-06T01:35:41.945Z,13.07
2023-05-06T01:38:27.586Z,13.05
2023-05-06T01:40:55.634Z,13.02
2023-05-06T01:43:26.296Z,13.04
2023-05-06T01:45:54.748Z,13.03
2023-05-06T01:48:26.326Z,13.03
2023-05-06T01:50:55.573Z,13.02
2023-05-06T01:53:22.629Z,12.97
2023-05-06T01:55:49.666Z,12.97
2023-05-06T01:58:17.286Z,13.01
2023-05-06T02:00:44.386Z,12.76
2023-05-06T02:03:12.464Z,12.86
2023-05-06T02:05:39.704Z,12.73
2023-05-06T02:08:07.444Z,12.83
2023-05-06T02:10:34.607Z,12.75
2023-05-06T02:13:05.916Z,12.62
2023-05-06T02:15:33.021Z,12.62
2023-05-06T02:18:01.521Z,12.49
2023-05-06T02:20:28.725Z,12.51
2023-05-06T02:22:56.344Z,12.57
2023-05-06T02:25:23.465Z,12.54
2023-05-06T02:27:50.643Z,12.48
2023-05-06T02:30:17.711Z,12.45
2023-05-06T02:32:44.884Z,12.46
2023-05-06T02:35:12.167Z,12.34
2023-05-06T02:37:39.297Z,12.32
2023-05-06T02:40:06.765Z,12.23
2023-05-06T02:42:34.532Z,12.27
2023-05-06T02:45:04.711Z,12.31
2023-05-06T02:47:50.889Z,12.28
2023-05-06T02:50:18.139Z,12.29
2023-05-06T02:52:45.262Z,12.23
2023-05-06T02:58:16.424Z,12.21
2023-05-06T03:00:43.578Z,12.18
2023-05-06T03:03:10.859Z,12.14
2023-05-06T03:05:37.873Z,12.22
2023-05-06T03:08:05.225Z,12.11
2023-05-06T03:10:33.194Z,12.16
2023-05-06T03:13:01.281Z,12.09
2023-05-06T03:15:29.223Z,12.17
2023-05-06T03:17:56.469Z,12.12
2023-05-06T03:20:24.907Z,12.00
2023-05-06T03:22:55.999Z,12.05
2023-05-06T03:25:24.267Z,12.05
2023-05-06T03:27:51.945Z,11.97
2023-05-06T03:30:22.079Z,11.99
2023-05-06T03:32:51.456Z,12.01
2023-05-06T03:35:28.349Z,12.07
2023-05-06T03:37:58.647Z,12.03
2023-05-06T03:40:30.315Z,12.07
2023-05-06T03:42:58.422Z,12.05
2023-05-06T03:45:25.552Z,12.12
2023-05-06T03:47:52.716Z,12.13
2023-05-06T03:50:22.368Z,12.07
2023-05-06T03:52:51.105Z,12.08
2023-05-06T03:55:19.089Z,12.06
2023-05-06T03:57:46.258Z,12.08
2023-05-06T04:00:14.276Z,12.01
2023-05-06T04:02:46.111Z,12.05
2023-05-06T04:05:21.182Z,12.02
2023-05-06T04:07:48.482Z,12.15
2023-05-06T04:10:15.829Z,12.26
2023-05-06T04:12:47.310Z,12.24
2023-05-06T04:15:19.388Z,12.24
2023-05-06T04:17:46.492Z,12.26
2023-05-06T04:20:14.410Z,12.19
2023-05-06T04:22:41.510Z,12.21
2023-05-06T04:25:09.329Z,12.24
2023-05-06T04:27:38.184Z,12.12
2023-05-06T04:30:08.575Z,12.17
2023-05-06T04:32:37.000Z,12.35
2023-05-06T04:35:05.389Z,12.34
2023-05-06T04:37:32.534Z,12.28
2023-05-06T04:40:09.281Z,12.23
2023-05-06T04:42:38.886Z,12.24
2023-05-06T04:45:11.738Z,12.24
2023-05-06T04:47:40.878Z,12.19
2023-05-06T04:50:09.542Z,12.33
2023-05-06T04:52:37.438Z,12.39
2023-05-06T04:55:05.623Z,12.38
2023-05-06T04:57:35.149Z,12.45
2023-05-06T05:00:03.626Z,12.46
2023-05-06T05:02:32.860Z,12.56
2023-05-06T05:05:00.079Z,12.56
2023-05-06T05:07:28.154Z,12.58
2023-05-06T05:09:55.355Z,12.57
2023-05-06T05:12:22.662Z,12.60
2023-05-06T05:14:51.588Z,12.67
2023-05-06T05:17:18.642Z,12.65
2023-05-06T05:19:47.964Z,12.68
2023-05-06T05:22:16.499Z,12.78
2023-05-06T05:24:43.615Z,12.85
2023-05-06T05:27:12.068Z,12.85
2023-05-06T05:29:40.068Z,12.85
2023-05-06T05:32:08.819Z,12.91
2023-05-06T05:34:36.190Z,12.95
2023-05-06T05:37:03.516Z,12.99
2023-05-06T05:39:31.167Z,13.05
2023-05-06T05:41:58.756Z,13.02
2023-05-06T05:44:26.236Z,13.05
2023-05-06T05:46:54.091Z,13.14
2023-05-06T05:49:21.727Z,13.18
2023-05-06T05:51:51.803Z,13.19
2023-05-06T05:54:20.903Z,13.22
2023-05-06T05:56:48.014Z,13.25
2023-05-06T05:59:16.082Z,13.28
2023-05-06T06:01:45.229Z,13.28
2023-05-06T06:04:12.411Z,13.40
2023-05-06T06:06:39.608Z,13.48
2023-05-06T06:09:07.648Z,13.51
2023-05-06T06:11:36.643Z,13.53
2023-05-06T06:14:03.931Z,13.52
2023-05-06T06:16:31.437Z,13.62
2023-05-06T06:18:58.650Z,13.67
2023-05-06T06:21:25.886Z,13.83
2023-05-06T06:23:53.561Z,13.88
2023-05-06T06:26:21.642Z,13.98
2023-05-06T06:28:48.707Z,14.18
2023-05-06T06:31:15.943Z,14.15
2023-05-06T06:33:43.249Z,14.15
2023-05-06T06:36:11.366Z,14.33
2023-05-06T06:38:38.541Z,14.21
2023-05-06T06:41:05.832Z,14.21
2023-05-06T06:43:33.010Z,14.25
2023-05-06T06:46:02.108Z,14.17
2023-05-06T06:48:29.356Z,14.16
2023-05-06T06:50:56.429Z,14.28
2023-05-06T06:53:23.602Z,14.18
2023-05-06T06:55:50.692Z,14.12
2023-05-06T06:58:17.743Z,14.23
2023-05-06T07:00:44.819Z,14.15
2023-05-06T07:03:15.808Z,14.17
2023-05-06T07:05:42.953Z,14.22
2023-05-06T07:08:10.064Z,14.21
2023-05-06T07:10:37.681Z,14.32
2023-05-06T07:13:04.803Z,14.32
2023-05-06T07:15:31.932Z,14.39
2023-05-06T07:17:58.989Z,14.38
2023-05-06T07:20:26.261Z,14.61
2023-05-06T07:22:53.297Z,15.02
2023-05-06T07:25:20.465Z,15.02
2023-05-06T07:27:47.617Z,15.30
2023-05-06T07:30:15.696Z,15.36
2023-05-06T07:32:43.510Z,15.29
2023-05-06T07:35:10.862Z,15.32
2023-05-06T07:37:38.171Z,15.35
2023-05-06T07:40:05.595Z,15.68
2023-05-06T07:42:32.663Z,16.27
2023-05-06T07:44:59.788Z,16.36
2023-05-06T07:47:28.234Z,16.71
2023-05-06T07:49:56.169Z,16.78
2023-05-06T07:52:23.940Z,16.94
2023-05-06T07:54:51.004Z,17.13
2023-05-06T07:57:18.112Z,17.08
2023-05-06T07:59:48.885Z,16.97
2023-05-06T08:02:16.357Z,16.92
2023-05-06T08:04:43.713Z,16.85
2023-05-06T08:07:11.065Z,17.16
2023-05-06T08:09:38.222Z,17.67
2023-05-06T08:12:05.835Z,17.78
2023-05-06T08:14:33.080Z,17.64
2023-05-06T08:17:00.250Z,17.51
2023-05-06T08:19:27.340Z,17.82
2023-05-06T08:21:54.503Z,17.87
2023-05-06T08:24:21.639Z,17.82
2023-05-06T08:26:48.875Z,17.86
2023-05-06T08:29:15.931Z,18.31
2023-05-06T08:31:43.330Z,18.44
2023-05-06T08:34:10.568Z,18.75
2023-05-06T08:36:37.941Z,18.61
2023-05-06T08:39:05.994Z,18.47
2023-05-06T08:41:34.397Z,18.16
2023-05-06T08:44:01.959Z,18.29
2023-05-06T08:46:31.142Z,18.43
2023-05-06T08:48:58.865Z,18.54
2023-05-06T08:51:28.793Z,19.05
2023-05-06T08:53:59.948Z,19.27
2023-05-06T08:56:29.651Z,18.90
2023-05-06T08:58:58.261Z,18.46
2023-05-06T09:01:27.714Z,18.40
2023-05-06T09:03:58.171Z,18.25
2023-05-06T09:06:25.534Z,18.34
2023-05-06T09:08:52.770Z,18.61
2023-05-06T09:11:27.895Z,18.89
2023-05-06T09:14:11.165Z,18.84
2023-05-06T09:16:38.798Z,18.65
2023-05-06T09:19:06.515Z,18.96
2023-05-06T09:21:37.349Z,19.33
2023-05-06T09:24:06.005Z,19.23
2023-05-06T09:26:34.033Z,18.96
2023-05-06T09:29:01.519Z,19.03
2023-05-06T09:31:29.151Z,19.28
2023-05-06T09:33:57.206Z,19.68
2023-05-06T09:36:25.780Z,19.62
2023-05-06T09:38:54.104Z,19.92
2023-05-06T09:41:22.813Z,20.03
2023-05-06T09:43:51.050Z,20.29
2023-05-06T09:46:18.912Z,20.16
2023-05-06T09:48:46.813Z,19.82
2023-05-06T09:51:13.970Z,19.92
2023-05-06T09:53:41.641Z,19.77
2023-05-06T09:56:08.942Z,19.86
2023-05-06T09:58:37.136Z,19.78
2023-05-06T10:01:06.899Z,19.67
2023-05-06T10:03:35.220Z,19.69
2023-05-06T10:06:03.388Z,19.65
2023-05-06T10:08:32.761Z,19.91
2023-05-06T10:11:00.793Z,20.03
2023-05-06T10:13:28.288Z,20.10
2023-05-06T10:15:55.987Z,20.09
2023-05-06T10:18:23.632Z,20.23
2023-05-06T10:20:53.591Z,20.08
2023-05-06T10:23:23.685Z,19.94
2023-05-06T10:25:52.672Z,19.91
2023-05-06T10:28:31.627Z,20.21
2023-05-06T10:30:59.536Z,20.19
2023-05-06T10:33:27.687Z,20.25
2023-05-06T10:35:54.782Z,19.87
2023-05-06T10:38:29.721Z,19.89
2023-05-06T10:40:57.164Z,20.21
2023-05-06T10:43:34.459Z,20.23
2023-05-06T10:46:02.770Z,20.23
2023-05-06T10:48:30.887Z,20.41
2023-05-06T10:51:16.469Z,20.56
2023-05-06T10:54:03.177Z,20.70
2023-05-06T10:56:33.289Z,20.48
2023-05-06T10:59:10.517Z,20.43
2023-05-06T11:01:38.645Z,20.29
2023-05-06T11:04:08.929Z,20.10
2023-05-06T11:06:43.005Z,20.08
2023-05-06T11:09:23.490Z,19.73
2023-05-06T11:11:52.223Z,20.04
2023-05-06T11:14:30.143Z,20.11
2023-05-06T11:17:01.421Z,20.24
2023-05-06T11:19:32.510Z,20.25
2023-05-06T11:22:00.499Z,20.10
2023-05-06T11:24:28.751Z,20.36
2023-05-06T11:26:58.051Z,20.43
2023-05-06T11:29:25.793Z,20.53
2023-05-06T11:31:54.076Z,20.26
2023-05-06T11:34:26.073Z,20.41
2023-05-06T11:36:58.573Z,20.53
2023-05-06T11:39:30.351Z,20.50
2023-05-06T11:41:58.690Z,20.39
2023-05-06T11:44:29.892Z,20.33
2023-05-06T11:46:58.140Z,20.09
2023-05-06T11:49:26.707Z,20.09
2023-05-06T11:51:54.801Z,20.36
2023-05-06T11:54:22.992Z,20.65
2023-05-06T11:56:53.724Z,20.76
2023-05-06T11:59:28.317Z,20.47
2023-05-06T12:01:56.941Z,20.59
2023-05-06T12:04:24.178Z,20.69
2023-05-06T12:06:51.461Z,20.56
2023-05-06T12:09:18.649Z,20.31
2023-05-06T12:11:45.860Z,20.39
2023-05-06T12:14:13.030Z,20.36
2023-05-06T12:16:41.358Z,20.47
2023-05-06T12:19:08.589Z,20.54
2023-05-06T12:21:39.189Z,20.38
2023-05-06T12:24:06.533Z,20.62
2023-05-06T12:26:43.297Z,20.42
2023-05-06T12:29:11.802Z,20.56
2023-05-06T12:31:39.387Z,20.52
2023-05-06T12:34:06.493Z,20.48
2023-05-06T12:36:39.168Z,20.52
2023-05-06T12:39:06.449Z,20.60
2023-05-06T12:41:37.960Z,20.31
2023-05-06T12:44:25.717Z,20.31
2023-05-06T12:46:53.136Z,20.19
2023-05-06T12:49:20.373Z,20.43
2023-05-06T12:51:47.810Z,20.24
2023-05-06T12:54:30.689Z,20.21
2023-05-06T12:56:57.893Z,20.37
2023-05-06T12:59:26.673Z,20.08
2023-05-06T13:01:53.758Z,20.32
2023-05-06T13:04:21.589Z,20.29
2023-05-06T13:06:49.688Z,20.30
2023-05-06T13:09:17.592Z,20.36
2023-05-06T13:11:44.804Z,20.19
2023-05-06T13:14:11.892Z,20.21
2023-05-06T13:16:39.172Z,20.25
2023-05-06T13:19:06.361Z,20.10
2023-05-06T13:21:33.818Z,20.11
2023-05-06T13:24:00.990Z,20.23
2023-05-06T13:26:28.180Z,20.27
2023-05-06T13:28:55.290Z,20.29
2023-05-06T13:31:23.190Z,20.06
2023-05-06T13:33:51.551Z,20.06
2023-05-06T13:36:18.584Z,20.13
2023-05-06T13:38:45.757Z,20.09
2023-05-06T13:41:12.808Z,20.05
2023-05-06T13:43:39.910Z,19.74
2023-05-06T13:46:08.270Z,20.01
2023-05-06T13:48:35.459Z,20.24
2023-05-06T13:51:02.616Z,20.35
2023-05-06T13:53:30.026Z,20.24
2023-05-06T13:55:57.108Z,20.12
2023-05-06T13:58:24.241Z,19.77
2023-05-06T14:00:51.342Z,20.03
2023-05-06T14:03:18.402Z,20.10
2023-05-06T14:05:45.572Z,19.99
2023-05-06T14:08:12.688Z,20.19
2023-05-06T14:10:39.763Z,19.97
2023-05-06T14:13:07.425Z,20.17
2023-05-06T14:15:34.701Z,19.94
2023-05-06T14:18:01.855Z,20.04
2023-05-06T14:20:28.983Z,20.05
2023-05-06T14:22:56.162Z,20.12
2023-05-06T14:25:26.881Z,20.05
2023-05-06T14:27:54.373Z,19.99
2023-05-06T14:30:21.764Z,20.03
2023-05-06T14:32:48.956Z,19.89
2023-05-06T14:35:16.200Z,19.92
2023-05-06T14:37:43.262Z,19.62
2023-05-06T14:40:10.426Z,19.42
2023-05-06T14:42:37.555Z,19.73
2023-05-06T14:45:05.054Z,19.75
2023-05-06T14:47:32.334Z,19.69
2023-05-06T14:49:59.505Z,19.78
2023-05-06T14:52:26.990Z,19.58
2023-05-06T14:54:54.040Z,19.34
2023-05-06T14:57:21.743Z,19.27
2023-05-06T14:59:49.844Z,19.39
2023-05-06T15:02:17.097Z,19.40
2023-05-06T15:04:44.354Z,19.31
2023-05-06T15:07:11.665Z,19.29
2023-05-06T15:09:43.965Z,19.27
2023-05-06T15:12:11.407Z,19.25
2023-05-06T15:14:38.955Z,19.22
2023-05-06T15:17:06.145Z,19.17
2023-05-06T15:19:33.858Z,19.21
2023-05-06T15:22:01.027Z,19.01
2023-05-06T15:24:28.131Z,18.91
2023-05-06T15:26:55.267Z,18.88
2023-05-06T15:29:22.348Z,18.90
2023-05-06T15:31:49.655Z,18.92
2023-05-06T15:34:16.774Z,18.90
2023-05-06T15:36:44.391Z,18.97
2023-05-06T15:39:12.569Z,18.87
2023-05-06T15:41:39.695Z,18.81
2023-05-06T15:44:07.113Z,18.87
2023-05-06T15:46:34.197Z,18.90
2023-05-06T15:51:31.345Z,19.04
2023-05-06T15:53:58.497Z,19.05
2023-05-06T15:56:27.073Z,18.99
2023-05-06T15:58:54.909Z,19.06
2023-05-06T16:01:33.581Z,18.88
2023-05-06T16:04:09.563Z,18.75
2023-05-06T16:06:36.782Z,18.83
2023-05-06T16:09:03.908Z,18.91
2023-05-06T16:11:31.010Z,18.94
2023-05-06T16:13:58.183Z,18.78
2023-05-06T16:16:25.294Z,18.87
2023-05-06T16:18:52.395Z,18.75
2023-05-06T16:21:19.455Z,18.82
2023-05-06T16:23:46.658Z,18.74
2023-05-06T16:26:14.723Z,18.58
2023-05-06T16:28:41.868Z,18.53
2023-05-06T16:31:09.016Z,18.50
2023-05-06T16:33:36.174Z,18.35
2023-05-06T16:36:03.318Z,18.31
2023-05-06T16:38:30.423Z,18.30
2023-05-06T16:40:57.814Z,18.32
2023-05-06T16:43:25.281Z,18.27
2023-05-06T16:45:52.431Z,18.21
2023-05-06T16:48:20.010Z,18.14
2023-05-06T16:50:48.202Z,18.11
2023-05-06T16:53:17.230Z,18.12
2023-05-06T16:55:48.672Z,18.08
2023-05-06T16:58:15.884Z,17.97
2023-05-06T17:00:43.211Z,17.94
2023-05-06T17:03:10.641Z,17.90
2023-05-06T17:05:37.803Z,17.87
2023-05-06T17:08:05.526Z,17.92
2023-05-06T17:10:32.660Z,17.85
2023-05-06T17:12:59.852Z,17.85
2023-05-06T17:15:26.888Z,17.84
2023-05-06T17:17:54.076Z,17.78
2023-05-06T17:20:21.300Z,17.72
2023-05-06T17:22:49.075Z,17.63
2023-05-06T17:25:16.289Z,17.57
2023-05-06T17:27:44.794Z,17.50
2023-05-06T17:30:12.482Z,17.53
2023-05-06T17:32:40.214Z,17.49
2023-05-06T17:35:07.675Z,17.41
2023-05-06T17:37:34.934Z,17.44
2023-05-06T17:40:02.906Z,17.39
2023-05-06T17:42:30.851Z,17.30
2023-05-06T17:44:57.995Z,17.23
2023-05-06T17:47:25.199Z,17.20
2023-05-06T17:49:52.850Z,17.21
2023-05-06T17:52:20.305Z,17.20
2023-05-06T17:55:14.962Z,17.16
2023-05-06T17:57:37.653Z,17.02
2023-05-06T18:00:05.554Z,17.09
2023-05-06T18:02:39.106Z,16.97
2023-05-06T18:05:06.660Z,16.90
2023-05-06T18:07:35.531Z,16.68
2023-05-06T18:10:02.644Z,16.74
2023-05-06T18:12:30.522Z,16.64
2023-05-06T18:14:57.920Z,16.61
2023-05-06T18:17:25.704Z,16.60
2023-05-06T18:19:52.862Z,16.51
2023-05-06T18:22:19.906Z,16.29
2023-05-06T18:24:47.029Z,16.43
2023-05-06T18:27:14.141Z,16.49
2023-05-06T18:29:41.380Z,16.50
2023-05-06T18:32:08.745Z,16.46
2023-05-06T18:34:35.931Z,16.42
2023-05-06T18:37:03.732Z,16.36
2023-05-06T18:39:30.819Z,16.24
2023-05-06T18:41:57.873Z,16.05
2023-05-06T18:44:24.950Z,16.05
2023-05-06T18:46:52.032Z,16.06
2023-05-06T18:49:19.164Z,15.90
2023-05-06T18:51:46.207Z,15.85
2023-05-06T18:54:14.219Z,15.82
2023-05-06T18:56:43.601Z,15.71
2023-05-06T18:59:11.603Z,15.66
2023-05-06T19:01:38.990Z,15.62
2023-05-06T19:04:06.525Z,15.57
2023-05-06T19:06:34.586Z,15.53
2023-05-06T19:09:01.679Z,15.44
2023-05-06T19:11:28.798Z,15.34
2023-05-06T19:13:55.852Z,15.22
2023-05-06T19:16:22.958Z,14.61
2023-05-06T19:18:50.116Z,14.47
2023-05-06T19:21:18.562Z,14.55
2023-05-06T19:23:45.653Z,14.45
2023-05-06T19:26:13.549Z,14.31
2023-05-06T19:28:40.661Z,14.50
2023-05-06T19:31:09.521Z,14.10
2023-05-06T19:33:37.172Z,14.18
2023-05-06T19:36:04.505Z,14.40
2023-05-06T19:38:31.623Z,14.34
2023-05-06T19:40:58.700Z,14.48
2023-05-06T19:43:25.842Z,14.44
2023-05-06T19:45:52.914Z,13.89
2023-05-06T19:48:20.623Z,13.86
2023-05-06T19:50:47.759Z,13.88
2023-05-06T19:53:15.568Z,13.75
2023-05-06T19:55:42.591Z,13.75
2023-05-06T19:58:11.111Z,13.56
2023-05-06T20:00:38.684Z,13.61
2023-05-06T20:03:06.037Z,13.61
2023-05-06T20:05:33.360Z,13.59
2023-05-06T20:08:00.738Z,13.53
2023-05-06T20:10:28.037Z,13.49
2023-05-06T20:12:57.367Z,13.42
2023-05-06T20:15:25.101Z,13.30
2023-05-06T20:17:52.289Z,13.29
2023-05-06T20:20:19.531Z,13.33
2023-05-06T20:22:46.831Z,13.18
2023-05-06T20:25:18.821Z,13.13
2023-05-06T20:27:46.320Z,13.12
2023-05-06T20:30:13.556Z,13.22
2023-05-06T20:32:40.963Z,13.34
2023-05-06T20:35:08.833Z,13.23
2023-05-06T20:37:36.268Z,13.23
2023-05-06T20:40:04.979Z,13.34
2023-05-06T20:42:32.104Z,13.44
2023-05-06T20:44:59.699Z,13.49
2023-05-06T20:47:27.078Z,13.43
2023-05-06T20:49:54.459Z,13.35
2023-05-06T20:52:21.844Z,13.20
2023-05-06T20:54:48.974Z,13.30
2023-05-06T20:57:16.532Z,13.22
2023-05-06T20:59:43.745Z,13.25
2023-05-06T21:02:10.920Z,13.28
2023-05-06T21:04:38.091Z,13.25
2023-05-06T21:07:05.251Z,13.16
2023-05-06T21:09:34.480Z,13.15
2023-05-06T21:12:01.553Z,13.10
2023-05-06T21:14:28.861Z,12.97
2023-05-06T21:16:55.905Z,12.51
2023-05-06T21:19:22.950Z,12.30
2023-05-06T21:21:49.986Z,12.49
2023-05-06T21:24:17.079Z,12.75
2023-05-06T21:26:44.195Z,12.66
2023-05-06T21:29:11.483Z,12.49
2023-05-06T21:31:38.801Z,12.28
2023-05-06T21:34:07.963Z,12.05
2023-05-06T21:36:35.559Z,12.27
2023-05-06T21:39:13.306Z,12.34
2023-05-06T21:41:40.571Z,12.27
2023-05-06T21:44:08.333Z,12.11
2023-05-06T21:46:36.769Z,12.10
2023-05-06T21:49:03.872Z,12.00
2023-05-06T21:51:34.861Z,11.91
2023-05-06T21:54:02.225Z,11.82
2023-05-06T21:56:29.311Z,11.79
2023-05-06T21:58:56.356Z,11.88
2023-05-06T22:01:26.058Z,11.84
2023-05-06T22:03:54.255Z,12.05
2023-05-06T22:06:22.341Z,12.21
2023-05-06T22:08:49.495Z,12.08
2023-05-06T22:11:16.926Z,12.12
2023-05-06T22:13:44.053Z,12.19
2023-05-06T22:16:11.233Z,12.20
2023-05-06T22:18:41.384Z,12.13
2023-05-06T22:21:09.652Z,12.06
2023-05-06T22:23:37.682Z,12.11
2023-05-06T22:26:04.847Z,12.24
2023-05-06T22:28:32.036Z,12.21
2023-05-06T22:30:59.067Z,12.18
2023-05-06T22:33:26.552Z,12.23
2023-05-06T22:35:53.727Z,12.22
2023-05-06T22:38:21.031Z,12.01
2023-05-06T22:40:48.085Z,12.13
2023-05-06T22:43:15.179Z,12.20
2023-05-06T22:45:42.268Z,12.15
2023-05-06T22:48:09.394Z,12.15
2023-05-06T22:50:38.025Z,12.06
2023-05-06T22:53:14.564Z,12.13
2023-05-06T22:55:42.712Z,12.13
2023-05-06T22:58:09.978Z,12.15
2023-05-06T23:00:37.213Z,12.12
2023-05-06T23:03:05.798Z,12.12
2023-05-06T23:05:32.986Z,12.05
2023-05-06T23:08:00.028Z,12.01
2023-05-06T23:10:27.973Z,12.03
2023-05-06T23:12:55.078Z,11.99
2023-05-06T23:15:22.978Z,12.08
2023-05-06T23:17:50.134Z,12.09
2023-05-06T23:20:17.313Z,12.05
2023-05-06T23:22:44.404Z,12.04
2023-05-06T23:25:12.018Z,12.12
2023-05-06T23:27:39.751Z,12.10
2023-05-06T23:30:07.811Z,12.13
2023-05-06T23:32:35.099Z,12.17
2023-05-06T23:35:02.831Z,12.16
2023-05-06T23:37:30.268Z,12.08
2023-05-06T23:40:00.514Z,12.09
2023-05-06T23:42:27.709Z,12.13
2023-05-06T23:44:55.082Z,12.14
2023-05-06T23:47:22.136Z,12.10
2023-05-06T23:49:49.271Z,12.06
2023-05-06T23:52:16.270Z,11.95
2023-05-06T23:54:43.396Z,11.91
2023-05-06T23:57:10.561Z,11.80
2023-05-06T23:59:37.629Z,11.91
